Time;durP1;ratioP1;P1;durP2;ratioP2;P2;SDS_P1;SDS_P2;PMS_P1;PMS_P2;Temp;Humidity;BMP_temperature;BMP_pressure;BME280_temperature;BME280_humidity;BME280_pressure;Samples;Min_cycle;Max_cycle;Signal;HPM_P1;HPM_P2
2021/05/26 00:00:29;;;;;;;11.98;9.05;;;11.10;84.20;;;;;;5078901;28;20078;-80
2021/05/26 00:02:55;;;;;;;13.43;9.10;;;11.10;84.30;;;;;;5070528;28;20048;-78
2021/05/26 00:05:21;;;;;;;11.30;8.35;;;11.10;84.30;;;;;;5098589;28;20043;-79
2021/05/26 00:07:46;;;;;;;10.82;8.75;;;11.10;84.30;;;;;;5077110;28;20055;-79
2021/05/26 00:10:13;;;;;;;10.27;8.50;;;11.10;84.40;;;;;;5094241;28;20048;-78
2021/05/26 00:12:41;;;;;;;9.13;8.05;;;11.10;84.40;;;;;;5061616;28;20052;-82
2021/05/26 00:15:08;;;;;;;10.85;8.48;;;11.00;84.40;;;;;;5073510;28;20044;-77
2021/05/26 00:17:34;;;;;;;10.93;8.57;;;11.00;84.40;;;;;;5071395;28;20477;-78
2021/05/26 00:20:01;;;;;;;9.95;7.72;;;11.10;84.40;;;;;;5063605;28;20143;-80
2021/05/26 00:22:28;;;;;;;9.45;8.20;;;11.10;84.50;;;;;;5059089;28;20052;-78
2021/05/26 00:24:53;;;;;;;10.10;8.73;;;11.10;84.50;;;;;;5053451;28;20038;-80
2021/05/26 00:27:19;;;;;;;9.35;8.35;;;11.00;84.50;;;;;;5071736;28;20075;-81
2021/05/26 00:29:47;;;;;;;14.57;9.38;;;11.10;84.50;;;;;;5048271;28;20167;-84
2021/05/26 00:32:15;;;;;;;10.50;8.63;;;11.00;84.50;;;;;;5074085;28;20349;-79
2021/05/26 00:34:40;;;;;;;11.90;8.65;;;11.10;84.60;;;;;;5073467;28;20114;-79
2021/05/26 00:37:06;;;;;;;9.23;8.32;;;11.00;84.50;;;;;;5089686;28;20112;-79
2021/05/26 00:39:33;;;;;;;9.73;7.93;;;11.00;84.60;;;;;;5073751;28;20043;-79
2021/05/26 00:41:58;;;;;;;11.23;8.80;;;11.00;84.50;;;;;;5090794;28;20115;-78
2021/05/26 00:44:24;;;;;;;11.32;8.65;;;11.00;84.60;;;;;;5059687;28;20072;-80
2021/05/26 00:46:50;;;;;;;12.95;9.43;;;11.00;84.50;;;;;;5052620;28;20059;-78
2021/05/26 00:49:16;;;;;;;10.10;8.45;;;11.10;84.60;;;;;;5069835;28;20052;-79
2021/05/26 00:51:42;;;;;;;10.25;7.70;;;11.00;84.60;;;;;;5053350;28;20131;-79
2021/05/26 00:54:08;;;;;;;15.43;8.13;;;11.00;84.60;;;;;;5069376;28;20083;-80
2021/05/26 00:56:34;;;;;;;9.50;8.07;;;11.10;84.60;;;;;;5053372;28;20047;-79
2021/05/26 00:59:01;;;;;;;12.88;8.55;;;11.10;84.70;;;;;;5052739;28;20131;-80
2021/05/26 01:01:27;;;;;;;9.18;8.02;;;11.00;84.70;;;;;;5053409;28;20051;-80
2021/05/26 01:03:55;;;;;;;14.68;9.02;;;11.10;84.70;;;;;;5052444;28;20393;-78
2021/05/26 01:06:21;;;;;;;12.57;8.15;;;11.00;84.70;;;;;;5054124;28;20097;-79
2021/05/26 01:08:46;;;;;;;10.15;8.15;;;11.00;84.80;;;;;;5073760;28;20052;-78
2021/05/26 01:11:12;;;;;;;9.93;8.15;;;11.00;84.80;;;;;;5073131;28;20481;-78
2021/05/26 01:13:38;;;;;;;8.70;7.80;;;11.00;84.80;;;;;;5074097;28;20086;-78
2021/05/26 01:16:06;;;;;;;9.45;8.10;;;11.00;84.80;;;;;;5074035;28;20097;-79
2021/05/26 01:18:33;;;;;;;9.10;8.20;;;11.00;84.80;;;;;;5060051;28;20039;-79
2021/05/26 01:21:00;;;;;;;9.93;7.78;;;11.00;84.80;;;;;;5056082;28;20121;-78
2021/05/26 01:23:27;;;;;;;8.68;7.78;;;11.00;84.80;;;;;;5074934;28;20032;-79
2021/05/26 01:25:54;;;;;;;9.88;8.27;;;11.00;84.80;;;;;;5076310;28;20040;-82
2021/05/26 01:28:20;;;;;;;14.63;8.68;;;11.00;84.70;;;;;;5060545;28;20066;-79
2021/05/26 01:30:46;;;;;;;9.90;8.90;;;11.00;84.70;;;;;;5076889;28;20131;-79
2021/05/26 01:33:12;;;;;;;10.23;8.30;;;11.00;84.70;;;;;;5075945;28;20222;-81
2021/05/26 01:35:42;;;;;;;10.25;8.38;;;11.00;84.70;;;;;;5059870;28;20041;-79
2021/05/26 01:38:11;;;;;;;13.15;9.80;;;11.00;84.80;;;;;;5055810;28;20429;-80
2021/05/26 01:40:37;;;;;;;12.13;8.70;;;11.00;84.70;;;;;;5057308;28;20074;-78
2021/05/26 01:43:05;;;;;;;10.73;9.02;;;11.00;84.80;;;;;;5072157;28;20548;-79
2021/05/26 01:45:31;;;;;;;11.63;9.98;;;11.00;84.80;;;;;;5073367;28;20036;-79
2021/05/26 01:47:57;;;;;;;12.55;9.30;;;11.00;84.80;;;;;;5072763;28;20041;-82
2021/05/26 01:50:23;;;;;;;14.52;10.27;;;11.00;84.80;;;;;;5073213;28;20072;-78
2021/05/26 01:53:05;;;;;;;14.15;11.48;;;11.00;84.80;;;;;;5073052;28;20049;-80
2021/05/26 01:55:35;;;;;;;12.93;11.25;;;11.00;84.90;;;;;;5056336;28;20044;-80
2021/05/26 01:58:01;;;;;;;14.07;11.02;;;11.00;84.80;;;;;;5072252;28;20119;-79
2021/05/26 02:00:27;;;;;;;16.88;12.98;;;11.00;84.80;;;;;;5073165;28;20075;-79
2021/05/26 02:02:53;;;;;;;15.38;12.95;;;11.00;84.80;;;;;;5056058;28;20041;-79
2021/05/26 02:05:21;;;;;;;15.85;12.68;;;11.00;84.90;;;;;;5056165;28;20048;-79
2021/05/26 02:07:47;;;;;;;23.42;14.73;;;10.90;84.80;;;;;;5056170;28;20338;-78
2021/05/26 02:10:17;;;;;;;18.38;14.68;;;10.90;84.90;;;;;;5055279;28;20051;-80
2021/05/26 02:12:44;;;;;;;19.10;15.35;;;10.90;84.90;;;;;;5056124;28;20043;-80
2021/05/26 02:15:14;;;;;;;22.55;16.02;;;10.90;84.90;;;;;;5055455;28;20044;-76
2021/05/26 02:17:40;;;;;;;19.27;14.90;;;10.90;84.90;;;;;;5055422;28;20146;-79
2021/05/26 02:20:12;;;;;;;22.23;16.73;;;10.90;85.00;;;;;;5050579;28;20136;-81
2021/05/26 02:22:38;;;;;;;22.50;16.92;;;10.90;85.00;;;;;;5040247;28;20139;-79
2021/05/26 02:25:04;;;;;;;22.50;18.10;;;10.90;85.00;;;;;;5055319;28;20072;-79
2021/05/26 02:27:30;;;;;;;25.55;17.73;;;10.90;85.00;;;;;;5072735;28;20055;-81
2021/05/26 02:29:56;;;;;;;22.25;18.90;;;10.90;85.00;;;;;;5055855;28;20041;-80
2021/05/26 02:32:23;;;;;;;22.25;17.23;;;10.90;85.10;;;;;;5071643;28;20121;-80
2021/05/26 02:34:49;;;;;;;27.67;20.05;;;10.90;85.10;;;;;;5056464;28;20041;-79
2021/05/26 02:37:14;;;;;;;27.38;19.13;;;10.90;85.10;;;;;;5054696;28;20050;-80
2021/05/26 02:39:40;;;;;;;24.30;19.08;;;10.80;85.00;;;;;;5055340;28;20048;-80
2021/05/26 02:42:07;;;;;;;21.95;17.75;;;10.80;85.00;;;;;;5054906;28;20044;-80
2021/05/26 02:44:32;;;;;;;26.60;18.98;;;10.80;85.10;;;;;;5088531;28;20051;-79
2021/05/26 02:46:58;;;;;;;22.73;17.80;;;10.80;85.10;;;;;;5055667;28;20470;-79
2021/05/26 02:49:24;;;;;;;22.67;17.73;;;10.80;85.00;;;;;;5038363;28;20516;-79
2021/05/26 02:51:49;;;;;;;24.48;18.77;;;10.80;85.00;;;;;;5072173;28;20055;-78
2021/05/26 02:54:15;;;;;;;26.25;18.92;;;10.70;84.90;;;;;;5070959;28;20071;-78
2021/05/26 02:56:41;;;;;;;24.38;19.08;;;10.80;85.00;;;;;;5038597;28;20095;-80
2021/05/26 02:59:07;;;;;;;29.45;19.17;;;10.70;84.80;;;;;;5054514;28;20063;-83
2021/05/26 03:01:34;;;;;;;25.25;18.98;;;10.70;85.00;;;;;;5071474;28;20051;-79
2021/05/26 03:04:00;;;;;;;28.27;20.00;;;10.70;85.00;;;;;;5055297;28;20093;-79
2021/05/26 03:06:26;;;;;;;23.75;19.45;;;10.70;85.00;;;;;;5070972;28;20193;-78
2021/05/26 03:08:51;;;;;;;26.65;19.73;;;10.60;85.00;;;;;;5074609;28;20119;-78
2021/05/26 03:11:17;;;;;;;26.20;19.23;;;10.60;85.00;;;;;;5090923;28;20126;-78
2021/05/26 03:13:43;;;;;;;25.55;19.27;;;10.60;85.10;;;;;;5075184;28;20503;-77
2021/05/26 03:16:09;;;;;;;25.42;19.40;;;10.60;85.10;;;;;;5072116;28;20040;-81
2021/05/26 03:18:35;;;;;;;27.88;19.20;;;10.60;85.00;;;;;;5054813;28;20097;-78
2021/05/26 03:21:01;;;;;;;24.88;18.90;;;10.50;85.00;;;;;;5070944;28;20059;-78
2021/05/26 03:23:27;;;;;;;24.05;18.88;;;10.60;84.90;;;;;;5070519;28;20040;-78
2021/05/26 03:25:52;;;;;;;27.85;18.10;;;10.50;85.00;;;;;;5072601;28;20485;-78
2021/05/26 03:28:18;;;;;;;25.33;18.70;;;10.50;85.00;;;;;;5089549;28;20040;-79
2021/05/26 03:30:45;;;;;;;32.30;19.17;;;10.50;85.10;;;;;;5057254;28;20471;-78
2021/05/26 03:33:11;;;;;;;26.85;18.58;;;10.50;85.10;;;;;;5073593;28;20043;-81
2021/05/26 03:35:38;;;;;;;21.65;16.95;;;10.50;85.00;;;;;;5057409;28;20056;-78
2021/05/26 03:38:04;;;;;;;22.08;16.95;;;10.50;84.90;;;;;;5088112;28;20048;-79
2021/05/26 03:40:30;;;;;;;21.08;16.50;;;10.50;84.90;;;;;;5056687;28;20232;-79
2021/05/26 03:42:57;;;;;;;18.80;15.80;;;10.50;84.80;;;;;;5057432;28;20036;-77
2021/05/26 03:45:22;;;;;;;20.27;15.13;;;10.50;84.80;;;;;;5086943;28;20093;-79
2021/05/26 03:47:48;;;;;;;21.20;15.75;;;10.50;84.70;;;;;;5074079;28;20536;-79
2021/05/26 03:50:14;;;;;;;21.17;15.20;;;10.40;84.60;;;;;;5090694;28;20044;-85
2021/05/26 03:52:44;;;;;;;20.88;14.30;;;10.40;84.60;;;;;;5040930;28;20144;-77
2021/05/26 03:55:10;;;;;;;20.40;14.82;;;10.40;84.60;;;;;;5057964;28;20123;-77
2021/05/26 03:57:37;;;;;;;21.85;15.57;;;10.40;84.60;;;;;;5056477;28;20048;-79
2021/05/26 04:00:08;;;;;;;20.20;14.18;;;10.30;84.50;;;;;;5057428;28;20435;-79
2021/05/26 04:02:34;;;;;;;18.42;13.23;;;10.30;84.60;;;;;;5090296;28;20152;-80
2021/05/26 04:05:00;;;;;;;19.05;13.40;;;10.30;84.50;;;;;;5057456;28;20046;-80
2021/05/26 04:07:26;;;;;;;19.92;13.10;;;10.30;84.40;;;;;;5089941;28;20127;-79
2021/05/26 04:09:51;;;;;;;17.95;13.48;;;10.30;84.40;;;;;;5057447;28;20541;-80
2021/05/26 04:12:17;;;;;;;20.75;13.05;;;10.30;84.40;;;;;;5073061;28;20036;-81
2021/05/26 04:14:43;;;;;;;15.65;12.73;;;10.30;84.40;;;;;;5040797;28;20048;-78
2021/05/26 04:17:09;;;;;;;19.52;12.02;;;10.30;84.40;;;;;;5057126;28;20495;-78
2021/05/26 04:19:35;;;;;;;13.80;10.50;;;10.30;84.40;;;;;;5056618;28;20622;-79
2021/05/26 04:22:01;;;;;;;16.58;11.82;;;10.30;84.30;;;;;;5071133;28;20080;-79
2021/05/26 04:24:26;;;;;;;16.60;10.60;;;10.30;84.40;;;;;;5056166;28;20472;-78
2021/05/26 04:26:52;;;;;;;14.02;10.25;;;10.30;84.30;;;;;;5090300;28;20131;-80
2021/05/26 04:29:19;;;;;;;13.25;9.95;;;10.30;84.30;;;;;;5056750;28;20506;-83
2021/05/26 04:31:45;;;;;;;13.95;10.98;;;10.30;84.10;;;;;;5090346;28;20066;-79
2021/05/26 04:34:11;;;;;;;13.00;9.68;;;10.30;84.10;;;;;;5057202;28;20481;-78
2021/05/26 04:36:37;;;;;;;15.82;9.75;;;10.30;84.10;;;;;;5090487;28;20054;-79
2021/05/26 04:39:03;;;;;;;14.68;9.38;;;10.30;84.10;;;;;;5090422;28;20476;-78
2021/05/26 04:41:31;;;;;;;11.55;8.57;;;10.30;84.20;;;;;;5056283;28;20048;-79
2021/05/26 04:43:58;;;;;;;12.02;9.00;;;10.40;84.20;;;;;;5056971;28;20036;-81
2021/05/26 04:46:24;;;;;;;10.68;8.32;;;10.40;84.20;;;;;;5072659;28;20054;-81
2021/05/26 04:48:50;;;;;;;11.82;8.30;;;10.40;84.20;;;;;;5073393;28;20063;-80
2021/05/26 04:51:18;;;;;;;8.60;7.70;;;10.40;84.20;;;;;;5056848;28;20047;-79
2021/05/26 04:53:44;;;;;;;9.50;8.10;;;10.40;84.20;;;;;;5072459;28;20514;-79
2021/05/26 04:56:10;;;;;;;10.75;7.18;;;10.40;84.20;;;;;;5073279;28;20131;-79
2021/05/26 04:58:36;;;;;;;10.40;7.85;;;10.40;84.20;;;;;;5072660;28;20040;-78
2021/05/26 05:01:02;;;;;;;9.55;7.45;;;10.40;84.10;;;;;;5073274;28;20119;-79
2021/05/26 05:03:27;;;;;;;12.38;7.78;;;10.40;84.10;;;;;;5055647;28;20097;-79
2021/05/26 05:05:53;;;;;;;10.30;6.50;;;10.40;84.10;;;;;;5056805;28;20043;-78
2021/05/26 05:08:19;;;;;;;10.95;7.07;;;10.40;84.00;;;;;;5077611;28;20072;-79
2021/05/26 05:10:45;;;;;;;8.15;6.85;;;10.40;84.00;;;;;;5073615;28;20047;-78
2021/05/26 05:13:10;;;;;;;7.97;6.35;;;10.50;84.00;;;;;;5073418;28;20515;-79
2021/05/26 05:15:36;;;;;;;8.00;6.22;;;10.50;84.00;;;;;;5089132;28;20071;-79
2021/05/26 05:18:02;;;;;;;9.50;5.93;;;10.50;83.90;;;;;;5057000;28;20381;-79
2021/05/26 05:20:28;;;;;;;7.38;6.03;;;10.50;83.90;;;;;;5069828;28;20056;-78
2021/05/26 05:22:54;;;;;;;7.15;5.75;;;10.60;83.80;;;;;;5073091;28;20052;-78
2021/05/26 05:25:21;;;;;;;7.65;6.05;;;10.60;83.60;;;;;;5073078;28;20400;-79
2021/05/26 05:27:47;;;;;;;9.15;6.03;;;10.60;83.70;;;;;;5053040;28;20038;-77
2021/05/26 05:30:13;;;;;;;6.50;5.00;;;10.60;83.60;;;;;;5053918;28;20051;-77
2021/05/26 05:32:39;;;;;;;8.82;6.75;;;10.60;83.60;;;;;;5070333;28;20040;-78
2021/05/26 05:35:05;;;;;;;7.07;5.30;;;10.70;83.50;;;;;;5055669;28;20062;-79
2021/05/26 05:37:31;;;;;;;10.07;5.90;;;10.70;83.50;;;;;;5039346;28;20052;-80
2021/05/26 05:39:57;;;;;;;7.22;5.82;;;10.70;83.60;;;;;;5039877;28;20503;-79
2021/05/26 05:42:23;;;;;;;10.45;6.47;;;10.70;83.50;;;;;;5079176;28;20056;-79
2021/05/26 05:44:49;;;;;;;8.57;6.15;;;10.80;83.60;;;;;;5071993;28;20024;-79
2021/05/26 05:47:15;;;;;;;9.43;6.43;;;10.80;83.70;;;;;;5086395;28;20055;-76
2021/05/26 05:49:40;;;;;;;8.80;6.60;;;10.80;83.70;;;;;;5084814;28;20067;-78
2021/05/26 05:52:09;;;;;;;9.95;7.60;;;10.80;83.70;;;;;;5053256;28;20048;-80
2021/05/26 05:54:35;;;;;;;9.80;7.32;;;10.80;83.90;;;;;;5074452;28;20036;-78
2021/05/26 05:57:11;;;;;;;10.88;7.18;;;10.80;83.90;;;;;;5071175;28;20040;-77
2021/05/26 05:59:37;;;;;;;13.57;8.93;;;10.80;83.80;;;;;;5092068;28;20548;-78
2021/05/26 06:02:05;;;;;;;10.82;8.07;;;10.90;83.70;;;;;;5091115;28;20044;-80
2021/05/26 06:04:33;;;;;;;14.05;8.55;;;10.90;83.60;;;;;;5074193;28;20032;-78
2021/05/26 06:06:59;;;;;;;11.10;9.02;;;11.00;83.50;;;;;;5076233;28;20050;-75
2021/05/26 06:09:24;;;;;;;12.02;9.27;;;11.00;83.40;;;;;;5092115;28;20134;-79
2021/05/26 06:11:50;;;;;;;14.27;10.00;;;11.10;83.60;;;;;;5077328;28;20094;-79
2021/05/26 06:14:19;;;;;;;12.18;10.75;;;11.10;83.30;;;;;;5049444;28;20055;-79
2021/05/26 06:16:44;;;;;;;14.60;11.30;;;11.20;83.30;;;;;;5090241;28;20135;-89
2021/05/26 06:19:13;;;;;;;14.90;10.85;;;11.20;83.10;;;;;;5077093;28;20079;-81
2021/05/26 06:21:39;;;;;;;16.50;11.00;;;11.20;83.20;;;;;;5060072;28;20052;-86
2021/05/26 06:24:09;;;;;;;14.73;10.40;;;11.30;83.00;;;;;;5069817;28;20033;-86
2021/05/26 06:26:41;;;;;;;14.45;10.68;;;11.30;83.20;;;;;;5036178;28;20119;-83
2021/05/26 06:29:09;;;;;;;15.75;10.98;;;11.30;83.90;;;;;;5084396;28;20056;-89
2021/05/26 06:31:35;;;;;;;15.52;10.88;;;11.40;83.10;;;;;;5075120;28;20079;-87
2021/05/26 06:34:19;;;;;;;17.55;12.02;;;11.40;83.10;;;;;;5032754;28;20051;-82
2021/05/26 06:36:51;;;;;;;20.50;13.05;;;11.50;83.30;;;;;;5048273;28;20110;-82
2021/05/26 06:39:55;;;;;;;17.02;12.85;;;11.50;82.90;;;;;;5086449;28;20036;-85
2021/05/26 06:42:36;;;;;;;19.67;12.20;;;11.60;83.00;;;;;;5091930;28;20477;-84
2021/05/26 06:45:16;;;;;;;;;;;;;;;;;;;;;
2021/05/26 06:47:44;;;;;;;19.83;14.02;;;11.70;82.90;;;;;;5074314;28;20055;-76
2021/05/26 06:50:21;;;;;;;20.48;14.02;;;11.70;82.90;;;;;;5063618;28;20485;-82
2021/05/26 06:53:08;;;;;;;19.02;14.02;;;11.80;82.90;;;;;;5083431;28;20503;-79
2021/05/26 06:55:40;;;;;;;18.98;14.02;;;11.80;82.90;;;;;;5115969;28;20096;-81
2021/05/26 06:58:15;;;;;;;18.20;13.63;;;11.80;82.90;;;;;;5082885;28;20044;-80
2021/05/26 07:01:04;;;;;;;20.27;13.35;;;11.90;82.90;;;;;;5082845;28;20044;-83
2021/05/26 07:04:06;;;;;;;22.95;14.55;;;11.90;82.80;;;;;;5102015;28;20052;-80
2021/05/26 07:06:43;;;;;;;20.25;14.45;;;12.00;82.80;;;;;;5103177;28;20074;-80
2021/05/26 07:09:11;;;;;;;20.70;14.95;;;12.00;82.80;;;;;;5084478;28;20529;-79
2021/05/26 07:11:40;;;;;;;22.52;14.75;;;12.10;82.90;;;;;;5083125;28;20043;-82
2021/05/26 07:14:06;;;;;;;18.40;14.68;;;12.20;82.80;;;;;;5080131;28;20469;-84
2021/05/26 07:16:42;;;;;;;22.13;15.15;;;12.20;82.80;;;;;;5081809;28;20051;-81
2021/05/26 07:19:16;;;;;;;19.02;14.88;;;12.20;82.70;;;;;;5082318;28;20044;-81
2021/05/26 07:21:49;;;;;;;20.13;15.15;;;12.20;82.60;;;;;;5082703;28;20056;-81
2021/05/26 07:24:17;;;;;;;23.55;16.02;;;12.30;82.60;;;;;;5067421;28;20392;-81
2021/05/26 07:26:46;;;;;;;23.90;15.93;;;12.30;82.40;;;;;;5082894;28;20040;-84
2021/05/26 07:29:12;;;;;;;23.23;15.90;;;12.30;82.40;;;;;;5083199;28;20055;-80
2021/05/26 07:32:17;;;;;;;20.55;14.98;;;12.30;82.30;;;;;;5093269;28;20374;-79
2021/05/26 07:34:42;;;;;;;22.42;14.48;;;12.40;82.50;;;;;;5082205;28;20082;-81
2021/05/26 07:37:11;;;;;;;20.52;14.70;;;12.40;82.30;;;;;;5082215;28;20074;-80
2021/05/26 07:39:53;;;;;;;18.60;14.73;;;12.40;82.20;;;;;;5083918;28;20109;-80
2021/05/26 07:42:25;;;;;;;18.88;14.15;;;12.50;82.00;;;;;;5083439;28;20043;-81
2021/05/26 07:44:51;;;;;;;16.25;13.85;;;12.40;81.80;;;;;;5081777;28;20400;-81
2021/05/26 07:47:37;;;;;;;18.98;14.82;;;12.50;81.90;;;;;;5083835;28;20089;-81
2021/05/26 07:50:04;;;;;;;18.83;14.50;;;12.50;81.70;;;;;;5067802;28;20072;-80
2021/05/26 07:52:30;;;;;;;20.88;14.15;;;12.50;81.60;;;;;;5065926;28;20423;-80
2021/05/26 07:54:57;;;;;;;18.90;12.68;;;12.60;81.60;;;;;;5065043;28;20393;-82
2021/05/26 07:57:22;;;;;;;17.70;13.43;;;12.50;81.40;;;;;;5082302;28;20048;-81
2021/05/26 07:59:48;;;;;;;18.50;13.80;;;12.60;81.40;;;;;;5081490;28;20078;-83
2021/05/26 08:02:17;;;;;;;20.25;13.45;;;12.60;81.40;;;;;;5081078;28;20044;-82
2021/05/26 08:04:53;;;;;;;19.10;14.00;;;12.60;81.40;;;;;;5098417;28;20085;-80
2021/05/26 08:07:18;;;;;;;22.45;14.40;;;12.70;81.40;;;;;;5083268;28;20040;-81
2021/05/26 08:09:44;;;;;;;16.77;12.60;;;12.70;81.40;;;;;;5098665;28;20403;-81
2021/05/26 08:12:13;;;;;;;18.20;12.93;;;12.70;81.40;;;;;;5082054;28;20047;-82
2021/05/26 08:14:41;;;;;;;16.30;13.18;;;12.70;81.50;;;;;;5081637;28;20048;-81
2021/05/26 08:17:07;;;;;;;22.02;15.68;;;12.70;81.50;;;;;;5080727;28;20065;-81
2021/05/26 08:19:35;;;;;;;20.02;15.02;;;12.70;81.50;;;;;;5114634;28;20059;-82
2021/05/26 08:22:03;;;;;;;17.33;13.73;;;12.80;81.60;;;;;;5075576;28;20055;-81
2021/05/26 08:24:29;;;;;;;18.08;13.63;;;12.80;81.60;;;;;;5081581;28;20043;-81
2021/05/26 08:27:15;;;;;;;21.30;14.30;;;12.80;81.70;;;;;;5079627;28;20052;-80
2021/05/26 08:29:41;;;;;;;20.50;13.50;;;12.90;81.80;;;;;;5079778;28;20052;-80
2021/05/26 08:32:07;;;;;;;17.38;14.05;;;12.90;81.70;;;;;;5063624;28;20055;-81
2021/05/26 08:34:32;;;;;;;15.55;13.30;;;12.90;81.70;;;;;;5096389;28;20042;-78
2021/05/26 08:36:58;;;;;;;17.05;12.80;;;12.90;81.60;;;;;;5079766;28;20090;-81
2021/05/26 08:39:24;;;;;;;15.63;12.98;;;12.90;81.70;;;;;;5080983;28;20125;-80
2021/05/26 08:41:54;;;;;;;15.13;11.70;;;12.90;82.30;;;;;;5064513;28;20135;-79
2021/05/26 08:44:20;;;;;;;14.85;12.45;;;13.00;81.60;;;;;;5096705;28;20040;-81
2021/05/26 08:46:53;;;;;;;22.38;13.45;;;13.00;81.80;;;;;;5082766;28;20040;-84
2021/05/26 08:49:20;;;;;;;13.85;10.93;;;13.00;81.80;;;;;;5099220;28;20039;-83
2021/05/26 08:51:49;;;;;;;12.00;9.05;;;13.00;81.90;;;;;;5082709;28;20461;-83
2021/05/26 08:54:17;;;;;;;11.80;10.07;;;12.90;81.90;;;;;;5081374;28;20057;-82
2021/05/26 08:56:44;;;;;;;10.82;9.77;;;12.90;82.10;;;;;;5081300;28;20051;-80
2021/05/26 08:59:13;;;;;;;12.18;10.15;;;12.90;82.20;;;;;;5080974;28;20047;-83
2021/05/26 09:01:47;;;;;;;13.35;10.02;;;12.90;82.40;;;;;;5081910;28;20448;-83
2021/05/26 09:04:27;;;;;;;11.57;9.90;;;12.90;82.70;;;;;;5063658;28;20066;-82
2021/05/26 09:07:13;;;;;;;12.50;10.60;;;13.00;82.90;;;;;;5098614;28;20094;-81
2021/05/26 09:09:53;;;;;;;14.07;11.75;;;13.00;82.70;;;;;;5081047;28;20044;-81
2021/05/26 09:12:41;;;;;;;14.68;13.20;;;13.10;82.90;;;;;;5068064;28;20056;-83
2021/05/26 09:15:15;;;;;;;15.20;13.50;;;13.20;83.20;;;;;;5064745;28;20041;-77
2021/05/26 09:17:45;;;;;;;15.55;13.57;;;13.30;83.30;;;;;;5072790;28;20036;-75
2021/05/26 09:20:24;;;;;;;15.80;11.25;;;13.30;83.30;;;;;;5073395;28;20065;-78
2021/05/26 09:22:59;;;;;;;15.07;11.73;;;13.40;83.00;;;;;;5066989;28;20052;-76
2021/05/26 09:25:25;;;;;;;13.10;10.93;;;13.40;82.90;;;;;;5089349;28;20127;-80
2021/05/26 09:28:33;;;;;;;12.02;10.73;;;13.50;82.50;;;;;;5074048;28;20048;-85
2021/05/26 09:31:13;;;;;;;11.82;10.48;;;13.60;82.70;;;;;;5049374;28;20056;-84
2021/05/26 09:33:55;;;;;;;13.63;10.32;;;13.60;82.30;;;;;;5071370;28;20043;-83
2021/05/26 09:36:25;;;;;;;10.85;9.75;;;13.70;82.30;;;;;;5084044;28;20030;-89
2021/05/26 09:38:54;;;;;;;11.57;9.60;;;13.80;82.20;;;;;;5066928;28;20399;-82
2021/05/26 09:41:23;;;;;;;13.10;9.65;;;13.80;82.00;;;;;;5082151;28;20239;-87
2021/05/26 09:44:00;;;;;;;11.35;8.38;;;13.90;81.90;;;;;;5081602;28;20542;-86
2021/05/26 09:46:33;;;;;;;11.20;9.05;;;13.90;81.80;;;;;;5073795;28;20033;-83
2021/05/26 09:49:28;;;;;;;12.23;6.95;;;14.00;81.90;;;;;;5054945;28;20142;-85
2021/05/26 09:51:55;;;;;;;5.90;4.95;;;14.00;81.50;;;;;;5080450;28;20492;-86
2021/05/26 09:54:30;;;;;;;4.50;3.83;;;14.00;81.10;;;;;;5079269;28;20039;-86
2021/05/26 09:57:02;;;;;;;6.70;4.05;;;13.90;80.70;;;;;;5070717;28;20361;-91
2021/05/26 09:59:28;;;;;;;4.82;3.42;;;13.90;80.30;;;;;;5090465;28;20038;-85
2021/05/26 10:01:54;;;;;;;5.18;3.40;;;13.90;80.40;;;;;;5058151;28;20416;-83
2021/05/26 10:04:24;;;;;;;3.72;3.33;;;14.00;80.50;;;;;;5074582;28;20127;-85
2021/05/26 10:06:55;;;;;;;5.20;3.20;;;14.00;80.40;;;;;;5096356;28;20499;-85
2021/05/26 10:09:25;;;;;;;3.17;2.88;;;14.10;80.30;;;;;;5059035;28;20465;-86
2021/05/26 10:11:55;;;;;;;5.00;3.00;;;14.10;80.00;;;;;;5064404;28;20052;-87
2021/05/26 10:14:25;;;;;;;4.68;3.10;;;14.10;79.70;;;;;;5059423;28;20077;-82
2021/05/26 10:16:54;;;;;;;4.45;2.85;;;14.20;79.80;;;;;;5076770;28;20044;-75
2021/05/26 10:19:20;;;;;;;3.38;2.72;;;14.30;80.00;;;;;;5105415;28;20040;-82
2021/05/26 10:21:49;;;;;;;3.60;2.85;;;14.50;79.90;;;;;;5067593;28;20094;-84
2021/05/26 10:24:18;;;;;;;2.92;2.60;;;14.70;79.30;;;;;;5066454;28;20103;-82
2021/05/26 10:26:49;;;;;;;3.67;2.60;;;14.90;78.80;;;;;;5098543;28;20082;-82
2021/05/26 10:29:27;;;;;;;2.88;2.50;;;15.10;77.80;;;;;;5098082;28;20046;-80
2021/05/26 10:32:00;;;;;;;3.17;2.58;;;15.20;76.70;;;;;;5099470;28;20489;-88
2021/05/26 10:34:52;;;;;;;;;;;15.30;76.50;;;;;;5082639;28;20046;-82
2021/05/26 10:37:30;;;;;;;3.05;1.80;;;15.50;75.50;;;;;;5097307;28;19928;-80
2021/05/26 10:39:55;;;;;;;2.28;1.85;;;15.70;75.40;;;;;;5064626;28;20060;-81
2021/05/26 10:42:32;;;;;;;2.20;2.00;;;15.90;75.30;;;;;;5063142;28;20047;-81
2021/05/26 10:45:01;;;;;;;4.40;2.10;;;16.00;74.60;;;;;;5080029;28;20369;-80
2021/05/26 10:47:43;;;;;;;2.97;2.20;;;16.20;74.50;;;;;;5046277;28;20412;-81
2021/05/26 10:50:16;;;;;;;3.33;2.45;;;16.30;73.40;;;;;;5095232;28;20032;-76
2021/05/26 10:52:57;;;;;;;3.35;2.60;;;16.40;74.00;;;;;;5074432;28;20054;-75
2021/05/26 10:55:46;;;;;;;4.00;2.25;;;16.40;72.20;;;;;;5090932;28;20059;-77
2021/05/26 10:58:20;;;;;;;6.25;3.65;;;16.50;71.50;;;;;;5109424;28;20063;-79
2021/05/26 11:00:55;;;;;;;3.53;2.70;;;16.40;72.00;;;;;;5082291;28;20347;-85
2021/05/26 11:03:25;;;;;;;4.78;3.10;;;16.40;71.70;;;;;;5081925;28;20502;-83
2021/05/26 11:05:55;;;;;;;3.28;2.40;;;16.40;71.80;;;;;;5098095;28;20044;-81
2021/05/26 11:11:39;;;;;;;2.20;1.42;;;16.40;71.10;;;;;;5040793;28;20055;-87
2021/05/26 11:14:24;;;;;;;3.83;1.98;;;16.50;71.10;;;;;;5099637;28;20051;-85
2021/05/26 11:16:50;;;;;;;3.35;1.58;;;16.70;69.60;;;;;;5065820;28;20047;-84
2021/05/26 11:19:29;;;;;;;3.67;1.77;;;16.80;70.10;;;;;;5099232;28;20036;-82
2021/05/26 11:21:57;;;;;;;2.35;1.40;;;17.10;70.00;;;;;;5083043;28;20142;-82
2021/05/26 11:24:24;;;;;;;3.30;1.48;;;17.30;69.20;;;;;;5066426;28;20127;-84
2021/05/26 11:26:50;;;;;;;1.58;1.27;;;17.50;67.70;;;;;;5083407;28;20036;-89
2021/05/26 11:29:32;;;;;;;3.20;1.27;;;17.60;66.70;;;;;;5083472;28;20039;-82
2021/05/26 11:32:09;;;;;;;2.53;1.13;;;17.80;65.50;;;;;;5081214;28;20051;-82
2021/05/26 11:34:35;;;;;;;2.58;1.27;;;18.00;63.70;;;;;;5064181;28;20036;-87
2021/05/26 11:37:02;;;;;;;2.03;1.45;;;18.10;64.30;;;;;;5076505;28;20036;-84
2021/05/26 11:39:29;;;;;;;3.20;1.30;;;18.10;63.60;;;;;;5076205;28;20046;-85
2021/05/26 11:42:17;;;;;;;2.13;1.40;;;18.30;62.90;;;;;;5079764;28;20051;-86
2021/05/26 11:44:59;;;;;;;4.50;1.75;;;18.70;62.80;;;;;;5048110;28;20044;-84
2021/05/26 11:47:49;;;;;;;2.17;1.30;;;18.80;60.90;;;;;;5080989;28;20042;-83
2021/05/26 11:50:15;;;;;;;2.38;1.40;;;18.80;59.70;;;;;;5088181;28;20067;-84
2021/05/26 11:52:46;;;;;;;2.42;1.33;;;18.80;60.70;;;;;;5098454;28;20104;-82
2021/05/26 11:55:19;;;;;;;1.58;1.23;;;18.70;60.40;;;;;;5082071;28;20033;-86
2021/05/26 11:57:46;;;;;;;2.92;1.55;;;18.70;60.50;;;;;;5064705;28;20052;-85
2021/05/26 12:00:28;;;;;;;2.72;1.35;;;18.90;60.40;;;;;;5057276;28;20040;-84
2021/05/26 12:03:13;;;;;;;3.90;1.17;;;19.20;60.20;;;;;;5090400;28;20048;-83
2021/05/26 12:05:54;;;;;;;2.92;1.52;;;19.30;59.10;;;;;;5053367;28;20074;-83
2021/05/26 12:08:24;;;;;;;3.25;1.33;;;19.30;59.00;;;;;;5064200;28;20067;-84
2021/05/26 12:10:52;;;;;;;2.90;1.40;;;19.20;58.30;;;;;;5047237;28;20066;-83
2021/05/26 12:13:23;;;;;;;3.80;1.52;;;19.30;58.20;;;;;;5081383;28;20047;-86
2021/05/26 12:15:49;;;;;;;4.75;1.60;;;19.50;58.00;;;;;;5065291;28;20040;-83
2021/05/26 12:18:18;;;;;;;2.70;1.60;;;19.70;58.00;;;;;;5063700;28;20036;-86
2021/05/26 12:20:50;;;;;;;3.28;1.35;;;19.80;57.60;;;;;;5058983;28;20120;-84
2021/05/26 12:23:36;;;;;;;2.75;1.60;;;19.90;57.40;;;;;;5055265;28;20089;-85
2021/05/26 12:26:19;;;;;;;6.40;1.92;;;19.80;56.60;;;;;;5058408;28;20044;-84
2021/05/26 12:28:58;;;;;;;5.50;2.17;;;19.70;57.60;;;;;;5061481;28;20060;-85
2021/05/26 12:31:27;;;;;;;5.60;2.28;;;19.40;57.40;;;;;;5057338;28;20528;-82
2021/05/26 12:33:59;;;;;;;3.78;2.00;;;19.30;57.40;;;;;;5058680;28;20099;-82
2021/05/26 12:36:30;;;;;;;3.65;1.95;;;19.20;57.80;;;;;;5063371;28;20044;-80
2021/05/26 12:38:59;;;;;;;3.15;1.95;;;19.10;57.50;;;;;;5095019;28;20052;-79
2021/05/26 12:41:34;;;;;;;5.40;1.90;;;19.10;57.10;;;;;;5078247;28;20036;-81
2021/05/26 12:44:13;;;;;;;6.43;2.20;;;19.00;56.40;;;;;;5087687;28;20040;-81
2021/05/26 12:46:55;;;;;;;4.38;1.80;;;19.00;55.90;;;;;;5086548;28;20044;-82
2021/05/26 12:49:34;;;;;;;4.80;2.20;;;19.00;55.80;;;;;;5072167;28;20043;-83
2021/05/26 12:52:01;;;;;;;4.85;2.97;;;19.10;56.00;;;;;;5094175;28;20069;-81
2021/05/26 12:54:51;;;;;;;4.65;1.92;;;19.20;55.80;;;;;;5059643;28;20151;-82